VTUU/UBP METAR and TAF weather

Enter ICAO airport designator
Station Type Date Time Source
VTUU METAR 2021/09/23 18:00 UTC NOAA

VTUU 231800Z 02002KT 9000 -RA FEW045 25/24 Q1008 NOSIG


Station Type Date Time Source
VTUU Decoded METAR 2021/09/23 18:00 UTC NOAA

Ubon Ratchathani, Thailand (VTUU) 15-15N 104-52E 127M
Sep 23, 2021 - 02:00 PM EDT / 2021.09.23 1800 UTC
Wind: from the NNE (020 degrees) at 2 MPH (2 KT):0
Visibility: 5 mile(s):0
Sky conditions: mostly clear
Weather: light rain
Temperature: 77 F (25 C)
Dew Point: 75 F (24 C)
Relative Humidity: 94%
Pressure (altimeter): 29.77 in. Hg (1008 hPa)
ob: VTUU 231800Z 02002KT 9000 -RA FEW045 25/24 Q1008 NOSIG
cycle: 18

Station Type Date Time Source
VTUU TAF 2021/09/23 18:36 UTC NOAA

TAF VTUU 231700Z 2318/2418 28005KT 9000 SCT025
TEMPO 2323/2406 VRB15KT 3500 RA BKN025

Example: see airport list